Willetsville, Ohio
Current Conditions -  °F | °C
As of 9:54 PM on Wednesday 22 Oct 2014 (Local Time) from KILN Reporting Station
Overcast Overcast  
Wind Chill: 47°   Ceiling: 2900
Heat Index: 47°   Visibility: 10mi
Dew Point: 39°   Wind: 3mph
Humidity: 74%   Direction: 350°N
Pressure: 30.27"   Gusts: NA
Location:  39.1546°N, 83.569°W
Report Text: KILN 230154Z AUTO 35003KT 10SM OVC029 08/04 A3027 RMK AO2 SLP265 T00830039
Loading
Personal Weather Stations






























Interactive Weather Map
Tropical Storm Tracking
New forecast layout! Learn more

10-Day Weather Forecast

Advertisements
Track Severe Weather on mobile